createdAt,value
2018-05-13T00:00:06.262Z,50.90
2018-05-13T00:02:32.596Z,51.10
2018-05-13T00:04:59.045Z,51.70
2018-05-13T00:07:26.114Z,51.90
2018-05-13T00:09:52.470Z,51.90
2018-05-13T00:12:18.813Z,52.50
2018-05-13T00:14:45.123Z,52.70
2018-05-13T00:17:11.460Z,53.40
2018-05-13T00:19:37.794Z,53.90
2018-05-13T00:22:04.348Z,54.40
2018-05-13T00:24:30.679Z,54.80
2018-05-13T00:26:57.034Z,55.20
2018-05-13T00:29:23.366Z,55.20
2018-05-13T00:31:49.677Z,55.40
2018-05-13T00:34:15.989Z,55.40
2018-05-13T00:36:42.358Z,55.40
2018-05-13T00:39:08.678Z,55.70
2018-05-13T00:41:35.028Z,56.70
2018-05-13T00:44:01.441Z,56.30
2018-05-13T00:46:28.069Z,56.50
2018-05-13T00:48:55.198Z,56.80
2018-05-13T00:51:21.573Z,56.80
2018-05-13T00:53:47.889Z,56.50
2018-05-13T00:56:14.438Z,56.30
2018-05-13T00:58:40.789Z,56.90
2018-05-13T01:01:07.133Z,57.20
2018-05-13T01:03:33.464Z,57.00
2018-05-13T01:06:00.022Z,57.00
2018-05-13T01:08:26.368Z,57.20
2018-05-13T01:10:52.697Z,57.60
2018-05-13T01:13:19.020Z,57.70
2018-05-13T01:15:45.514Z,57.90
2018-05-13T01:18:12.571Z,58.60
2018-05-13T01:20:39.655Z,58.70
2018-05-13T01:23:06.012Z,58.70
2018-05-13T01:25:32.613Z,58.70
2018-05-13T01:27:59.071Z,58.70
2018-05-13T01:30:25.413Z,58.40
2018-05-13T01:32:51.729Z,58.50
2018-05-13T01:35:18.063Z,58.30
2018-05-13T01:37:44.385Z,58.30
2018-05-13T01:40:10.750Z,58.40
2018-05-13T01:42:37.121Z,58.60
2018-05-13T01:45:03.451Z,58.20
2018-05-13T01:47:29.781Z,59.10
2018-05-13T01:49:56.833Z,59.40
2018-05-13T01:52:23.172Z,59.40
2018-05-13T01:54:49.485Z,59.60
2018-05-13T01:57:15.814Z,59.70
2018-05-13T01:59:42.216Z,60.70
2018-05-13T02:02:08.610Z,60.00
2018-05-13T02:04:34.953Z,60.10
2018-05-13T02:07:01.266Z,60.50
2018-05-13T02:09:27.573Z,59.50
2018-05-13T02:11:53.963Z,59.40
2018-05-13T02:14:20.283Z,59.80
2018-05-13T02:16:46.607Z,58.80
2018-05-13T02:19:12.984Z,58.50
2018-05-13T02:21:40.046Z,60.60
2018-05-13T02:24:06.356Z,60.60
2018-05-13T02:26:32.901Z,60.80
2018-05-13T02:28:59.206Z,60.90
2018-05-13T02:31:25.514Z,61.00
2018-05-13T02:33:51.853Z,60.60
2018-05-13T02:36:18.499Z,60.70
2018-05-13T02:38:44.790Z,60.60
2018-05-13T02:41:11.333Z,60.60
2018-05-13T02:43:37.694Z,61.10
2018-05-13T02:46:04.237Z,60.30
2018-05-13T02:48:30.541Z,60.30
2018-05-13T02:50:56.901Z,60.90
2018-05-13T02:53:23.570Z,60.80
2018-05-13T02:55:50.144Z,60.40
2018-05-13T02:58:16.461Z,60.50
2018-05-13T03:00:42.787Z,60.30
2018-05-13T03:03:09.999Z,60.50
2018-05-13T03:05:36.529Z,60.50
2018-05-13T03:08:02.898Z,60.40
2018-05-13T03:10:29.270Z,60.00
2018-05-13T03:12:55.585Z,59.90
2018-05-13T03:15:21.993Z,59.90
2018-05-13T03:17:49.069Z,60.10
2018-05-13T03:20:15.566Z,60.00
2018-05-13T03:22:41.948Z,60.10
2018-05-13T03:25:08.331Z,60.20
2018-05-13T03:27:34.858Z,60.40
2018-05-13T03:30:01.193Z,60.30
2018-05-13T03:32:27.497Z,60.10
2018-05-13T03:34:53.874Z,60.60
2018-05-13T03:37:20.241Z,60.00
2018-05-13T03:39:46.573Z,60.30
2018-05-13T03:42:12.990Z,60.50
2018-05-13T03:44:40.149Z,60.30
2018-05-13T03:47:06.454Z,60.20
2018-05-13T03:49:32.829Z,60.10
2018-05-13T03:51:59.145Z,59.90
2018-05-13T03:54:25.473Z,60.30
2018-05-13T03:56:51.932Z,60.40
2018-05-13T03:59:18.267Z,60.10
2018-05-13T04:01:44.577Z,59.90
2018-05-13T04:04:10.944Z,59.90
2018-05-13T04:06:37.496Z,59.90
2018-05-13T04:09:16.026Z,59.70
2018-05-13T04:11:55.373Z,59.90
2018-05-13T04:14:33.824Z,59.90
2018-05-13T04:17:00.461Z,60.30
2018-05-13T04:19:26.779Z,60.30
2018-05-13T04:21:53.133Z,60.10
2018-05-13T04:24:20.182Z,60.20
2018-05-13T04:26:46.551Z,60.10
2018-05-13T04:29:13.033Z,60.10
2018-05-13T04:31:39.385Z,59.90
2018-05-13T04:34:05.708Z,60.00
2018-05-13T04:36:32.137Z,60.10
2018-05-13T04:38:58.461Z,60.10
2018-05-13T04:41:24.776Z,59.70
2018-05-13T04:43:51.107Z,59.80
2018-05-13T04:46:17.663Z,60.00
2018-05-13T04:48:44.009Z,60.90
2018-05-13T04:51:10.365Z,59.70
2018-05-13T04:53:36.688Z,59.50
2018-05-13T04:56:03.236Z,59.00
2018-05-13T04:58:29.542Z,59.80
2018-05-13T05:00:55.845Z,59.60
2018-05-13T05:03:22.249Z,59.30
2018-05-13T05:05:49.645Z,59.10
2018-05-13T05:08:16.981Z,59.20
2018-05-13T05:10:43.733Z,59.20
2018-05-13T05:13:10.211Z,59.60
2018-05-13T05:15:36.538Z,59.20
2018-05-13T05:18:02.863Z,58.60
2018-05-13T05:20:29.189Z,58.60
2018-05-13T05:22:55.513Z,58.40
2018-05-13T05:25:21.911Z,57.90
2018-05-13T05:27:48.333Z,58.00
2018-05-13T05:30:14.644Z,57.70
2018-05-13T05:32:41.837Z,58.00
2018-05-13T05:35:08.157Z,58.00
2018-05-13T05:37:34.500Z,57.50
2018-05-13T05:40:00.812Z,57.50
2018-05-13T05:42:27.113Z,56.90
2018-05-13T05:44:53.645Z,56.30
2018-05-13T05:47:19.953Z,56.30
2018-05-13T05:49:46.271Z,56.20
2018-05-13T05:52:13.409Z,56.10
2018-05-13T05:54:39.880Z,56.10
2018-05-13T05:57:06.203Z,56.50
2018-05-13T05:59:32.513Z,56.70
2018-05-13T06:01:58.830Z,57.00
2018-05-13T06:04:25.161Z,56.60
2018-05-13T06:06:51.801Z,56.60
2018-05-13T06:09:18.145Z,56.90
2018-05-13T06:11:46.037Z,56.70
2018-05-13T06:14:12.389Z,56.70
2018-05-13T06:16:38.845Z,56.90
2018-05-13T06:19:05.189Z,56.70
2018-05-13T06:21:31.493Z,56.60
2018-05-13T06:23:57.826Z,56.70
2018-05-13T06:26:24.514Z,56.70
2018-05-13T06:28:50.832Z,56.60
2018-05-13T06:31:17.894Z,56.80
2018-05-13T06:33:44.261Z,56.80
2018-05-13T06:36:11.002Z,56.60
2018-05-13T06:38:37.325Z,56.50
2018-05-13T06:41:03.709Z,56.80
2018-05-13T06:43:30.041Z,57.00
2018-05-13T06:45:56.657Z,56.70
2018-05-13T06:48:22.977Z,56.90
2018-05-13T06:50:50.155Z,56.40
2018-05-13T06:53:16.503Z,56.40
2018-05-13T06:55:43.806Z,56.60
2018-05-13T06:58:10.915Z,56.70
2018-05-13T07:00:37.233Z,56.40
2018-05-13T07:03:03.553Z,56.10
2018-05-13T07:05:29.857Z,56.00
2018-05-13T07:07:56.221Z,55.40
2018-05-13T07:10:23.296Z,54.90
2018-05-13T07:12:49.638Z,54.90
2018-05-13T07:15:15.970Z,55.40
2018-05-13T07:17:43.038Z,55.00
2018-05-13T07:20:09.371Z,55.00
2018-05-13T07:22:35.682Z,54.60
2018-05-13T07:25:02.030Z,55.20
2018-05-13T07:27:28.361Z,54.20
2018-05-13T07:29:54.661Z,54.80
2018-05-13T07:32:20.985Z,54.80
2018-05-13T07:34:47.305Z,53.40
2018-05-13T07:37:13.677Z,53.20
2018-05-13T07:39:40.017Z,52.60
2018-05-13T07:42:06.337Z,51.50
2018-05-13T07:44:32.646Z,51.70
2018-05-13T07:46:59.173Z,50.60
2018-05-13T07:49:25.531Z,49.90
2018-05-13T07:51:51.868Z,49.30
2018-05-13T07:54:18.225Z,48.70
2018-05-13T07:56:44.781Z,48.00
2018-05-13T07:59:11.109Z,46.70
2018-05-13T08:01:37.477Z,46.10
2018-05-13T08:04:03.915Z,45.40
2018-05-13T08:06:30.530Z,46.10
2018-05-13T08:08:56.838Z,46.20
2018-05-13T08:11:23.188Z,46.40
2018-05-13T08:13:50.242Z,45.90
2018-05-13T08:16:16.745Z,45.80
2018-05-13T08:18:43.085Z,44.50
2018-05-13T08:21:09.413Z,43.40
2018-05-13T08:23:35.739Z,42.60
2018-05-13T08:26:02.082Z,40.60
2018-05-13T08:28:29.149Z,40.60
2018-05-13T08:30:55.504Z,40.00
2018-05-13T08:33:21.874Z,40.30
2018-05-13T08:35:49.697Z,38.20
2018-05-13T08:38:16.010Z,38.10
2018-05-13T08:40:42.444Z,38.70
2018-05-13T08:43:08.754Z,38.50
2018-05-13T08:45:35.810Z,39.30
2018-05-13T08:48:02.165Z,39.20
2018-05-13T08:50:28.457Z,40.20
2018-05-13T08:52:54.825Z,40.60
2018-05-13T08:55:21.189Z,40.20
2018-05-13T08:57:47.501Z,40.00
2018-05-13T09:00:13.866Z,40.20
2018-05-13T09:02:40.189Z,39.60
2018-05-13T09:05:06.545Z,40.40
2018-05-13T09:07:32.869Z,40.00
2018-05-13T09:09:59.198Z,40.00
2018-05-13T09:12:25.553Z,41.00
2018-05-13T09:14:51.881Z,41.30
2018-05-13T09:17:18.985Z,42.60
2018-05-13T09:19:45.533Z,42.50
2018-05-13T09:22:11.870Z,43.10
2018-05-13T09:24:38.245Z,43.10
2018-05-13T09:27:04.733Z,42.70
2018-05-13T09:29:31.378Z,42.50
2018-05-13T09:31:57.753Z,42.70
2018-05-13T09:34:24.114Z,43.60
2018-05-13T09:36:50.629Z,43.50
2018-05-13T09:39:16.989Z,43.90
2018-05-13T09:41:44.073Z,44.20
2018-05-13T09:44:10.433Z,44.20
2018-05-13T09:46:36.941Z,44.00
2018-05-13T09:49:04.006Z,45.50
2018-05-13T09:51:30.337Z,45.50
2018-05-13T09:53:56.657Z,44.80
2018-05-13T09:56:24.053Z,45.90
2018-05-13T09:58:50.377Z,45.90
2018-05-13T10:01:16.701Z,46.10
2018-05-13T10:03:43.839Z,43.40
2018-05-13T10:06:10.187Z,43.30
2018-05-13T10:08:36.493Z,43.80
2018-05-13T10:11:02.829Z,42.80
2018-05-13T10:13:29.169Z,43.00
2018-05-13T10:15:55.521Z,43.10
2018-05-13T10:18:21.900Z,42.30
2018-05-13T10:20:48.993Z,41.70
2018-05-13T10:23:15.474Z,41.60
2018-05-13T10:25:41.835Z,41.80
2018-05-13T10:28:08.159Z,41.40
2018-05-13T10:30:34.510Z,42.30
2018-05-13T10:33:00.822Z,41.10
2018-05-13T10:35:27.176Z,40.60
2018-05-13T10:37:53.501Z,41.00
2018-05-13T10:40:19.838Z,40.90
2018-05-13T10:42:46.389Z,40.20
2018-05-13T10:45:12.925Z,40.20
2018-05-13T10:47:39.233Z,40.00
2018-05-13T10:50:05.555Z,40.70
2018-05-13T10:52:31.881Z,40.10
2018-05-13T10:54:59.174Z,41.90
2018-05-13T10:57:25.493Z,41.90
2018-05-13T10:59:51.845Z,39.60
2018-05-13T11:02:18.239Z,38.10
2018-05-13T11:04:44.625Z,37.30
2018-05-13T11:07:10.953Z,37.30
2018-05-13T11:09:37.284Z,37.90
2018-05-13T11:12:03.606Z,37.50
2018-05-13T11:14:29.973Z,37.40
2018-05-13T11:16:57.200Z,39.10
2018-05-13T11:19:23.588Z,39.00
2018-05-13T11:21:49.936Z,39.00
2018-05-13T11:24:16.404Z,40.60
2018-05-13T11:26:43.143Z,40.20
2018-05-13T11:29:09.425Z,39.00
2018-05-13T11:31:35.745Z,38.50
2018-05-13T11:34:02.086Z,38.50
2018-05-13T11:36:28.609Z,38.60
2018-05-13T11:38:54.920Z,39.20
2018-05-13T11:41:21.276Z,39.70
2018-05-13T11:43:48.478Z,41.00
2018-05-13T11:46:14.794Z,41.00
2018-05-13T11:48:41.863Z,40.70
2018-05-13T11:51:08.197Z,40.50
2018-05-13T11:53:34.519Z,41.30
2018-05-13T11:56:00.852Z,42.00
2018-05-13T11:58:27.905Z,41.50
2018-05-13T12:00:54.239Z,41.40
2018-05-13T12:03:20.564Z,41.50
2018-05-13T12:05:46.889Z,41.90
2018-05-13T12:08:13.221Z,42.20
2018-05-13T12:10:39.565Z,41.80
2018-05-13T12:13:05.885Z,41.90
2018-05-13T12:15:32.239Z,41.60
2018-05-13T12:17:58.597Z,41.80
2018-05-13T12:20:24.969Z,42.20
2018-05-13T12:22:51.278Z,42.70
2018-05-13T12:25:17.887Z,42.70
2018-05-13T12:27:44.194Z,42.60
2018-05-13T12:30:11.302Z,43.10
2018-05-13T12:32:37.607Z,43.00
2018-05-13T12:35:04.261Z,43.70
2018-05-13T12:37:30.578Z,43.50
2018-05-13T12:39:56.889Z,44.90
2018-05-13T12:42:23.230Z,45.00
2018-05-13T12:44:49.571Z,44.60
2018-05-13T12:47:16.094Z,44.80
2018-05-13T12:49:42.397Z,44.80
2018-05-13T12:52:09.509Z,44.90
2018-05-13T12:54:35.818Z,44.80
2018-05-13T12:57:02.386Z,44.30
2018-05-13T12:59:28.762Z,45.40
2018-05-13T13:01:55.065Z,44.60
2018-05-13T13:04:21.398Z,44.20
2018-05-13T13:06:47.923Z,44.80
2018-05-13T13:09:14.314Z,46.00
2018-05-13T13:11:40.673Z,46.80
2018-05-13T13:14:07.042Z,47.70
2018-05-13T13:16:33.409Z,47.90
2018-05-13T13:18:59.728Z,48.60
2018-05-13T13:21:26.077Z,48.90
2018-05-13T13:23:52.386Z,48.90
2018-05-13T13:26:19.461Z,50.00
2018-05-13T13:28:45.837Z,49.50
2018-05-13T13:31:12.169Z,49.30
2018-05-13T13:33:38.478Z,49.40
2018-05-13T13:36:04.901Z,50.10
2018-05-13T13:38:31.216Z,50.30
2018-05-13T13:40:57.527Z,50.30
2018-05-13T13:43:24.626Z,52.00
2018-05-13T13:45:50.978Z,52.00
2018-05-13T13:48:18.125Z,52.30
2018-05-13T13:50:44.474Z,52.30
2018-05-13T13:53:10.817Z,52.10
2018-05-13T13:55:37.430Z,52.50
2018-05-13T13:58:03.796Z,52.70
2018-05-13T14:00:30.147Z,53.10
2018-05-13T14:02:56.525Z,52.90
2018-05-13T14:05:23.038Z,53.50
2018-05-13T14:07:49.414Z,53.40
2018-05-13T14:10:16.509Z,54.70
2018-05-13T14:12:42.830Z,54.70
2018-05-13T14:15:09.385Z,55.70
2018-05-13T14:17:35.698Z,56.10
2018-05-13T14:20:02.077Z,57.40
2018-05-13T14:22:28.431Z,57.50
2018-05-13T14:24:54.972Z,57.80
2018-05-13T14:27:21.305Z,59.90
2018-05-13T14:29:47.657Z,60.20
2018-05-13T14:32:13.970Z,61.40
2018-05-13T14:34:40.722Z,62.60
2018-05-13T14:37:07.287Z,62.80
2018-05-13T14:39:33.597Z,63.90
2018-05-13T14:41:59.930Z,64.00
2018-05-13T14:44:26.261Z,65.20
2018-05-13T14:46:52.593Z,66.60
2018-05-13T14:49:18.958Z,67.10
2018-05-13T14:51:45.278Z,67.40
2018-05-13T14:54:11.613Z,66.80
2018-05-13T14:56:37.968Z,66.80
2018-05-13T14:59:04.313Z,67.20
2018-05-13T15:01:30.626Z,67.20
2018-05-13T15:03:56.981Z,67.10
2018-05-13T15:06:23.297Z,67.30
2018-05-13T15:08:49.616Z,67.50
2018-05-13T15:11:16.170Z,68.30
2018-05-13T15:13:42.488Z,67.80
2018-05-13T15:16:08.809Z,67.50
2018-05-13T15:18:35.186Z,66.30
2018-05-13T15:21:01.626Z,64.90
2018-05-13T15:23:28.673Z,65.40
2018-05-13T15:25:55.273Z,65.40
2018-05-13T15:28:21.641Z,65.30
2018-05-13T15:30:48.133Z,65.60
2018-05-13T15:33:14.465Z,64.50
2018-05-13T15:35:41.073Z,62.40
2018-05-13T15:38:07.374Z,62.20
2018-05-13T15:40:34.469Z,62.50
2018-05-13T15:43:01.063Z,62.40
2018-05-13T15:45:27.568Z,62.80
2018-05-13T15:47:53.881Z,62.10
2018-05-13T15:50:20.385Z,63.60
2018-05-13T15:52:46.717Z,64.00
2018-05-13T15:55:13.366Z,62.70
2018-05-13T15:57:39.753Z,62.00
2018-05-13T16:00:06.143Z,61.10
2018-05-13T16:02:33.226Z,61.70
2018-05-13T16:04:59.850Z,61.70
2018-05-13T16:07:26.193Z,62.30
2018-05-13T16:09:52.493Z,62.10
2018-05-13T16:12:19.681Z,62.40
2018-05-13T16:14:46.875Z,63.20
2018-05-13T16:17:13.930Z,63.20
2018-05-13T16:19:41.018Z,63.80
2018-05-13T16:22:07.378Z,63.70
2018-05-13T16:24:33.701Z,64.10
2018-05-13T16:27:00.034Z,64.30
2018-05-13T16:29:26.409Z,63.40
2018-05-13T16:31:53.469Z,62.20
2018-05-13T16:34:20.566Z,63.20
2018-05-13T16:36:46.905Z,63.20
2018-05-13T16:39:13.227Z,63.30
2018-05-13T16:41:39.581Z,60.80
2018-05-13T16:44:05.909Z,61.80
2018-05-13T16:46:32.238Z,62.30
2018-05-13T16:48:58.566Z,63.00
2018-05-13T16:51:24.907Z,64.10
2018-05-13T16:53:52.045Z,64.30
2018-05-13T16:56:19.232Z,64.40
2018-05-13T16:58:45.543Z,64.30
2018-05-13T17:01:12.005Z,64.90
2018-05-13T17:03:38.321Z,65.10
2018-05-13T17:06:04.689Z,65.30
2018-05-13T17:08:30.986Z,64.70
2018-05-13T17:10:57.347Z,64.00
2018-05-13T17:13:23.687Z,64.20
2018-05-13T17:15:50.310Z,64.60
2018-05-13T17:18:16.677Z,66.10
2018-05-13T17:20:43.009Z,66.70
2018-05-13T17:23:09.321Z,66.40
2018-05-13T17:25:35.794Z,66.00
2018-05-13T17:28:02.870Z,66.00
2018-05-13T17:30:29.237Z,65.90
2018-05-13T17:32:55.582Z,66.40
2018-05-13T17:35:22.200Z,67.70
2018-05-13T17:37:48.645Z,67.70
2018-05-13T17:40:14.989Z,67.70
2018-05-13T17:42:41.329Z,68.60
2018-05-13T17:45:07.754Z,69.10
2018-05-13T17:47:34.088Z,69.70
2018-05-13T17:50:00.510Z,69.60
2018-05-13T17:52:26.747Z,70.00
2018-05-13T17:54:53.989Z,70.00
2018-05-13T17:57:21.105Z,69.30
2018-05-13T17:59:48.217Z,68.80
2018-05-13T18:02:15.280Z,69.40
2018-05-13T18:04:41.597Z,69.40
2018-05-13T18:07:08.732Z,71.40
2018-05-13T18:09:35.050Z,71.40
2018-05-13T18:12:01.429Z,72.40
2018-05-13T18:14:28.513Z,70.90
2018-05-13T18:16:54.850Z,70.90
2018-05-13T18:19:21.933Z,70.70
2018-05-13T18:21:48.981Z,71.70
2018-05-13T18:24:16.097Z,72.20
2018-05-13T18:26:42.498Z,72.20
2018-05-13T18:29:08.809Z,72.30
2018-05-13T18:31:35.990Z,72.20
2018-05-13T18:34:02.484Z,72.20
2018-05-13T18:36:29.541Z,72.10
2018-05-13T18:38:56.652Z,71.70
2018-05-13T18:41:23.012Z,71.60
2018-05-13T18:43:50.270Z,72.30
2018-05-13T18:46:16.572Z,72.30
2018-05-13T18:48:42.941Z,73.60
2018-05-13T18:51:09.250Z,72.90
2018-05-13T18:53:35.601Z,71.80
2018-05-13T18:56:01.954Z,69.90
2018-05-13T18:58:28.314Z,68.10
2018-05-13T19:00:55.404Z,66.30
2018-05-13T19:03:22.640Z,65.10
2018-05-13T19:05:49.105Z,65.10
2018-05-13T19:08:15.429Z,65.60
2018-05-13T19:10:41.742Z,66.40
2018-05-13T19:13:08.833Z,68.00
2018-05-13T19:15:35.413Z,68.00
2018-05-13T19:18:01.751Z,68.50
2018-05-13T19:20:28.634Z,68.80
2018-05-13T19:22:55.047Z,68.10
2018-05-13T19:25:22.248Z,69.70
2018-05-13T19:27:48.724Z,69.70
2018-05-13T19:30:15.126Z,70.30
2018-05-13T19:32:41.473Z,71.00
2018-05-13T19:35:08.005Z,71.90
2018-05-13T19:37:35.093Z,72.90
2018-05-13T19:40:01.414Z,72.80
2018-05-13T19:42:27.796Z,73.30
2018-05-13T19:44:54.108Z,73.50
2018-05-13T19:47:20.518Z,73.50
2018-05-13T19:49:46.910Z,73.70
2018-05-13T19:52:13.217Z,73.70
2018-05-13T19:54:40.278Z,73.60
2018-05-13T19:57:06.832Z,73.50
2018-05-13T19:59:33.181Z,73.80
2018-05-13T20:02:00.229Z,74.50
2018-05-13T20:04:26.533Z,74.50
2018-05-13T20:06:53.049Z,74.70
2018-05-13T20:09:19.522Z,75.20
2018-05-13T20:11:45.800Z,75.00
2018-05-13T20:14:12.145Z,75.40
2018-05-13T20:16:38.467Z,75.90
2018-05-13T20:19:04.811Z,75.70
2018-05-13T20:21:32.598Z,76.40
2018-05-13T20:23:59.669Z,75.80
2018-05-13T20:26:26.093Z,75.80
2018-05-13T20:28:52.470Z,75.30
2018-05-13T20:31:18.841Z,75.00
2018-05-13T20:33:45.167Z,75.00
2018-05-13T20:36:11.537Z,74.90
2018-05-13T20:38:37.856Z,75.40
2018-05-13T20:41:04.905Z,75.80
2018-05-13T20:43:31.381Z,75.70
2018-05-13T20:45:57.724Z,75.90
2018-05-13T20:48:24.261Z,75.30
2018-05-13T20:50:50.594Z,74.60
2018-05-13T20:53:16.913Z,74.90
2018-05-13T20:55:43.349Z,74.40
2018-05-13T20:58:09.759Z,74.30
2018-05-13T21:00:36.118Z,74.20
2018-05-13T21:03:02.437Z,74.00
2018-05-13T21:05:29.005Z,73.20
2018-05-13T21:10:37.175Z,72.60
2018-05-13T21:13:03.565Z,72.50
2018-05-13T21:15:29.894Z,72.60
2018-05-13T21:17:56.217Z,71.90
2018-05-13T21:20:22.745Z,71.70
2018-05-13T21:22:49.136Z,71.90
2018-05-13T21:25:15.445Z,71.50
2018-05-13T21:27:41.782Z,71.30
2018-05-13T21:30:08.177Z,71.40
2018-05-13T21:32:34.454Z,72.00
2018-05-13T21:35:00.781Z,72.10
2018-05-13T21:37:27.128Z,71.80
2018-05-13T21:39:53.793Z,71.40
2018-05-13T21:42:20.101Z,71.30
2018-05-13T21:44:46.478Z,71.30
2018-05-13T21:47:12.891Z,71.10
2018-05-13T21:49:39.253Z,71.00
2018-05-13T21:52:06.338Z,71.00
2018-05-13T21:54:32.670Z,71.00
2018-05-13T21:56:59.081Z,71.70
2018-05-13T21:59:25.391Z,72.00
2018-05-13T22:01:52.513Z,73.00
2018-05-13T22:04:18.865Z,73.10
2018-05-13T22:06:45.490Z,73.00
2018-05-13T22:09:11.805Z,73.90
2018-05-13T22:11:38.128Z,74.10
2018-05-13T22:14:04.481Z,74.60
2018-05-13T22:16:31.038Z,74.70
2018-05-13T22:18:57.385Z,74.70
2018-05-13T22:21:24.446Z,74.50
2018-05-13T22:23:50.870Z,74.60
2018-05-13T22:26:18.085Z,75.00
2018-05-13T22:28:44.412Z,75.00
2018-05-13T22:31:10.753Z,75.30
2018-05-13T22:33:37.130Z,75.60
2018-05-13T22:36:03.484Z,74.90
2018-05-13T22:38:29.785Z,75.20
2018-05-13T22:40:56.865Z,76.00
2018-05-13T22:43:23.206Z,75.90
2018-05-13T22:45:49.557Z,75.70
2018-05-13T22:48:15.886Z,75.90
2018-05-13T22:50:42.246Z,76.10
2018-05-13T22:53:09.315Z,76.30
2018-05-13T22:55:35.669Z,76.20
2018-05-13T22:58:01.982Z,76.10
2018-05-13T23:00:28.331Z,75.80
2018-05-13T23:02:54.677Z,76.00
2018-05-13T23:05:21.083Z,76.30
2018-05-13T23:07:47.441Z,76.10
2018-05-13T23:10:15.250Z,76.20
2018-05-13T23:12:41.602Z,76.10
2018-05-13T23:15:07.979Z,76.10
2018-05-13T23:17:34.224Z,77.00
2018-05-13T23:20:01.304Z,75.70
2018-05-13T23:22:33.497Z,75.70
2018-05-13T23:24:59.869Z,75.70
2018-05-13T23:27:26.930Z,75.60
2018-05-13T23:29:54.185Z,75.90
2018-05-13T23:32:20.601Z,75.80
2018-05-13T23:34:47.669Z,75.70
2018-05-13T23:37:14.041Z,75.60
2018-05-13T23:39:40.357Z,75.40
2018-05-13T23:42:06.661Z,75.70
2018-05-13T23:44:33.037Z,75.90
2018-05-13T23:46:59.590Z,75.60
2018-05-13T23:49:25.965Z,76.00
2018-05-13T23:51:52.306Z,75.10
2018-05-13T23:54:18.621Z,75.10
2018-05-13T23:56:45.737Z,74.80
2018-05-13T23:59:12.074Z,74.70
